createdAt,value
2019-05-10T00:00:23.365Z,17.50
2019-05-10T00:03:10.398Z,20.03
2019-05-10T00:05:57.447Z,18.00
2019-05-10T00:08:44.555Z,20.13
2019-05-10T00:11:38.151Z,19.30
2019-05-10T00:14:28.978Z,20.67
2019-05-10T00:17:05.754Z,20.53
2019-05-10T00:19:35.245Z,22.07
2019-05-10T00:22:05.131Z,22.17
2019-05-10T00:24:35.083Z,23.50
2019-05-10T00:27:04.710Z,20.47
2019-05-10T00:29:34.210Z,20.87
2019-05-10T00:32:04.107Z,24.13
2019-05-10T00:34:33.607Z,20.53
2019-05-10T00:37:03.585Z,22.40
2019-05-10T00:39:33.098Z,25.00
2019-05-10T00:42:02.612Z,24.07
2019-05-10T00:44:32.124Z,25.57
2019-05-10T00:47:01.610Z,25.83
2019-05-10T00:49:31.125Z,25.90
2019-05-10T00:52:00.754Z,26.70
2019-05-10T00:54:30.280Z,27.30
2019-05-10T00:56:59.796Z,31.17
2019-05-10T00:59:29.315Z,29.27
2019-05-10T01:01:59.163Z,32.10
2019-05-10T01:04:28.654Z,27.40
2019-05-10T01:06:58.170Z,27.20
2019-05-10T01:09:28.031Z,26.30
2019-05-10T01:11:57.513Z,29.23
2019-05-10T01:14:27.051Z,27.30
2019-05-10T01:16:56.554Z,31.23
2019-05-10T01:19:26.054Z,29.67
2019-05-10T01:21:55.952Z,27.20
2019-05-10T01:24:25.503Z,26.27
2019-05-10T01:26:55.399Z,27.93
2019-05-10T01:29:24.883Z,30.10
2019-05-10T01:31:54.414Z,26.93
2019-05-10T01:34:23.921Z,23.83
2019-05-10T01:36:53.454Z,24.67
2019-05-10T01:39:22.938Z,21.67
2019-05-10T01:41:52.465Z,22.80
2019-05-10T01:44:22.283Z,24.70
2019-05-10T01:46:52.090Z,23.23
2019-05-10T01:49:21.575Z,22.07
2019-05-10T01:51:51.097Z,21.60
2019-05-10T01:54:20.597Z,24.77
2019-05-10T01:56:50.097Z,21.37
2019-05-10T01:59:19.723Z,25.50
2019-05-10T02:01:49.243Z,23.60
2019-05-10T02:04:18.741Z,23.43
2019-05-10T02:06:48.695Z,21.23
2019-05-10T02:09:18.331Z,18.67
2019-05-10T02:11:47.834Z,22.97
2019-05-10T02:14:17.362Z,18.27
2019-05-10T02:16:47.342Z,26.17
2019-05-10T02:19:16.873Z,20.20
2019-05-10T02:21:46.761Z,22.83
2019-05-10T02:24:16.278Z,22.97
2019-05-10T02:26:46.178Z,22.07
2019-05-10T02:29:16.058Z,21.60
2019-05-10T02:31:45.716Z,24.33
2019-05-10T02:34:15.600Z,22.63
2019-05-10T02:36:45.435Z,21.23
2019-05-10T02:39:14.952Z,19.83
2019-05-10T02:41:44.455Z,22.27
2019-05-10T02:44:13.971Z,22.33
2019-05-10T02:46:43.494Z,17.83
2019-05-10T02:49:13.051Z,18.93
2019-05-10T02:51:42.608Z,19.50
2019-05-10T02:54:12.471Z,20.97
2019-05-10T02:56:42.563Z,16.87
2019-05-10T02:59:14.283Z,19.80
2019-05-10T03:01:46.069Z,16.90
2019-05-10T03:04:16.090Z,19.37
2019-05-10T03:06:45.843Z,16.13
2019-05-10T03:09:15.351Z,18.33
2019-05-10T03:11:49.679Z,19.10
2019-05-10T03:14:19.885Z,20.53
2019-05-10T03:16:52.919Z,19.40
2019-05-10T03:19:23.007Z,16.60
2019-05-10T03:22:04.752Z,18.93
2019-05-10T03:24:34.598Z,18.03
2019-05-10T03:27:04.238Z,17.60
2019-05-10T03:29:33.729Z,16.27
2019-05-10T03:32:03.234Z,19.07
2019-05-10T03:34:33.400Z,16.83
2019-05-10T03:37:02.939Z,18.13
2019-05-10T03:39:32.451Z,17.83
2019-05-10T03:42:01.935Z,17.33
2019-05-10T03:44:31.442Z,23.70
2019-05-10T03:47:01.159Z,20.03
2019-05-10T03:49:30.782Z,19.67
2019-05-10T03:52:00.599Z,21.20
2019-05-10T03:54:30.229Z,20.93
2019-05-10T03:57:12.463Z,19.30
2019-05-10T03:59:31.299Z,19.70
2019-05-10T04:02:00.832Z,25.50
2019-05-10T04:04:30.320Z,19.90
2019-05-10T04:06:59.972Z,21.87
2019-05-10T04:09:29.879Z,24.50
2019-05-10T04:11:59.364Z,19.53
2019-05-10T04:14:28.914Z,19.23
2019-05-10T04:16:58.802Z,20.10
2019-05-10T04:19:28.307Z,22.60
2019-05-10T04:21:57.791Z,25.47
2019-05-10T04:24:27.445Z,23.27
2019-05-10T04:26:56.922Z,23.90
2019-05-10T04:29:26.410Z,25.53
2019-05-10T04:31:55.932Z,30.20
2019-05-10T04:34:25.894Z,22.70
2019-05-10T04:36:55.417Z,27.60
2019-05-10T04:39:24.910Z,27.80
2019-05-10T04:41:54.855Z,31.27
2019-05-10T04:44:24.343Z,31.90
2019-05-10T04:46:53.837Z,27.93
2019-05-10T04:49:23.347Z,28.67
2019-05-10T04:51:52.827Z,28.23
2019-05-10T04:54:22.334Z,30.93
2019-05-10T04:56:51.828Z,27.57
2019-05-10T04:59:22.062Z,28.80
2019-05-10T05:01:51.628Z,27.70
2019-05-10T05:04:21.108Z,24.60
2019-05-10T05:06:50.636Z,21.87
2019-05-10T05:09:20.145Z,24.40
2019-05-10T05:11:50.431Z,24.00
2019-05-10T05:14:24.826Z,19.17
2019-05-10T05:16:54.658Z,20.13
2019-05-10T05:19:24.122Z,18.13
2019-05-10T05:21:53.816Z,16.40
2019-05-10T05:24:24.467Z,16.30
2019-05-10T05:26:54.514Z,16.77
2019-05-10T05:29:24.043Z,16.23
2019-05-10T05:32:00.149Z,14.57
2019-05-10T05:34:24.861Z,15.30
2019-05-10T05:36:54.330Z,16.40
2019-05-10T05:39:24.438Z,15.00
2019-05-10T05:41:56.568Z,12.57
2019-05-10T05:44:26.143Z,14.83
2019-05-10T05:46:56.326Z,12.37
2019-05-10T05:49:25.806Z,10.83
2019-05-10T05:51:55.284Z,11.60
2019-05-10T05:54:24.838Z,13.63
2019-05-10T05:56:54.303Z,10.00
2019-05-10T05:59:26.159Z,9.90
2019-05-10T06:02:00.670Z,10.43
2019-05-10T06:04:26.262Z,11.30
2019-05-10T06:06:59.215Z,11.77
2019-05-10T06:09:32.056Z,10.80
2019-05-10T06:11:58.385Z,10.00
2019-05-10T06:14:28.467Z,9.83
2019-05-10T06:16:58.379Z,11.73
2019-05-10T06:19:29.616Z,11.20
2019-05-10T06:22:04.594Z,9.33
2019-05-10T06:24:35.200Z,11.40
2019-05-10T06:27:05.410Z,8.87
2019-05-10T06:29:35.032Z,9.50
2019-05-10T06:32:04.622Z,10.90
2019-05-10T06:34:38.962Z,11.27
2019-05-10T06:37:06.500Z,11.47
2019-05-10T06:39:36.396Z,14.03
2019-05-10T06:42:08.159Z,11.30
2019-05-10T06:44:38.282Z,10.90
2019-05-10T06:47:10.030Z,10.20
2019-05-10T06:49:41.028Z,9.33
2019-05-10T06:52:10.620Z,9.40
2019-05-10T06:54:42.599Z,8.77
2019-05-10T06:57:17.544Z,8.60
2019-05-10T06:59:43.651Z,7.73
2019-05-10T07:02:13.143Z,12.10
2019-05-10T07:04:42.658Z,7.93
2019-05-10T07:07:20.506Z,7.70
2019-05-10T07:10:04.349Z,8.63
2019-05-10T07:12:17.904Z,11.00
2019-05-10T07:14:46.739Z,8.80
2019-05-10T07:17:16.634Z,11.40
2019-05-10T07:19:53.475Z,9.77
2019-05-10T07:22:21.768Z,11.20
2019-05-10T07:24:48.870Z,9.50
2019-05-10T07:27:18.346Z,8.97
2019-05-10T07:29:47.843Z,7.27
2019-05-10T07:32:22.170Z,11.40
2019-05-10T07:34:58.517Z,11.10
2019-05-10T07:37:20.164Z,10.33
2019-05-10T07:39:49.672Z,10.93
2019-05-10T07:42:19.172Z,8.30
2019-05-10T07:44:48.986Z,7.30
2019-05-10T07:47:18.487Z,6.37
2019-05-10T07:49:47.966Z,8.60
2019-05-10T07:52:17.483Z,9.50
2019-05-10T07:54:47.813Z,5.57
2019-05-10T07:57:18.683Z,6.37
2019-05-10T07:59:51.134Z,4.93
2019-05-10T08:02:21.374Z,4.53
2019-05-10T08:04:53.538Z,5.17
2019-05-10T08:07:22.002Z,6.47
2019-05-10T08:09:51.491Z,4.37
2019-05-10T08:12:21.013Z,5.53
2019-05-10T08:14:53.523Z,8.03
2019-05-10T08:17:21.635Z,5.07
2019-05-10T08:19:51.533Z,4.63
2019-05-10T08:22:22.943Z,4.70
2019-05-10T08:24:56.221Z,4.90
2019-05-10T08:27:23.342Z,6.47
2019-05-10T08:30:15.825Z,5.43
2019-05-10T08:32:25.637Z,6.10
2019-05-10T08:34:56.071Z,8.57
2019-05-10T08:37:30.918Z,9.90
2019-05-10T08:39:56.952Z,7.37
2019-05-10T08:42:43.495Z,4.60
2019-05-10T08:45:03.596Z,4.17
2019-05-10T08:47:29.177Z,3.90
2019-05-10T08:50:12.029Z,4.23
2019-05-10T08:52:31.790Z,6.87
2019-05-10T08:55:02.754Z,4.30
2019-05-10T08:57:34.886Z,6.67
2019-05-10T09:00:08.883Z,6.03
2019-05-10T09:02:34.632Z,6.40
2019-05-10T09:05:04.854Z,7.23
2019-05-10T09:07:38.853Z,5.77
2019-05-10T09:10:09.436Z,4.27
2019-05-10T09:12:44.255Z,6.90
2019-05-10T09:15:10.340Z,4.30
2019-05-10T09:17:42.565Z,6.50
2019-05-10T09:20:20.167Z,5.00
2019-05-10T09:22:42.549Z,5.60
2019-05-10T09:25:13.061Z,6.60
2019-05-10T09:27:43.379Z,5.20
2019-05-10T09:30:18.474Z,4.33
2019-05-10T09:32:46.470Z,5.63
2019-05-10T09:35:15.955Z,4.47
2019-05-10T09:37:47.734Z,3.63
2019-05-10T09:40:17.186Z,4.70
2019-05-10T09:42:46.679Z,3.47
2019-05-10T09:45:16.278Z,6.03
2019-05-10T09:47:45.760Z,4.80
2019-05-10T09:50:15.562Z,3.00
2019-05-10T09:52:45.091Z,3.80
2019-05-10T09:55:15.560Z,8.17
2019-05-10T09:57:48.009Z,2.77
2019-05-10T10:00:18.708Z,4.03
2019-05-10T10:02:56.238Z,3.00
2019-05-10T10:05:19.350Z,6.07
2019-05-10T10:07:48.837Z,4.97
2019-05-10T10:10:28.548Z,5.63
2019-05-10T10:12:49.586Z,3.37
2019-05-10T10:15:29.058Z,4.37
2019-05-10T10:17:50.317Z,5.50
2019-05-10T10:20:20.139Z,5.27
2019-05-10T10:22:54.318Z,7.47
2019-05-10T10:25:21.251Z,2.80
2019-05-10T10:27:50.767Z,4.40
2019-05-10T10:30:21.532Z,3.50
2019-05-10T10:32:51.281Z,4.50
2019-05-10T10:35:26.474Z,6.00
2019-05-10T10:37:51.923Z,6.10
2019-05-10T10:40:21.514Z,4.90
2019-05-10T10:42:51.398Z,6.40
2019-05-10T10:45:21.285Z,5.23
2019-05-10T10:47:50.802Z,4.67
2019-05-10T10:50:20.302Z,4.67
2019-05-10T10:52:50.248Z,3.03
2019-05-10T10:55:19.827Z,3.47
2019-05-10T10:57:49.334Z,4.57
2019-05-10T11:00:29.071Z,4.77
2019-05-10T11:02:58.722Z,4.30
2019-05-10T11:05:28.598Z,5.60
2019-05-10T11:08:00.888Z,4.13
2019-05-10T11:10:32.748Z,5.03
2019-05-10T11:13:10.640Z,3.97
2019-05-10T11:15:36.172Z,6.10
2019-05-10T11:18:04.551Z,5.40
2019-05-10T11:20:34.054Z,4.87
2019-05-10T11:23:04.687Z,5.00
2019-05-10T11:25:34.542Z,5.20
2019-05-10T11:28:04.050Z,4.80
2019-05-10T11:30:34.091Z,3.30
2019-05-10T11:33:03.623Z,6.73
2019-05-10T11:35:34.688Z,5.13
2019-05-10T11:38:06.688Z,9.10
2019-05-10T11:40:35.495Z,6.40
2019-05-10T11:43:05.450Z,4.20
2019-05-10T11:45:36.784Z,6.43
2019-05-10T11:48:06.959Z,5.17
2019-05-10T11:50:36.467Z,4.23
2019-05-10T11:53:13.383Z,4.20
2019-05-10T11:55:40.236Z,3.70
2019-05-10T11:58:12.975Z,3.43
2019-05-10T12:00:41.288Z,4.20
2019-05-10T12:05:42.782Z,3.60
2019-05-10T12:08:13.213Z,3.10
2019-05-10T12:10:52.995Z,2.67
2019-05-10T12:13:19.894Z,3.80
2019-05-10T12:15:46.562Z,4.97
2019-05-10T12:18:16.053Z,5.73
2019-05-10T12:20:55.563Z,2.50
2019-05-10T12:23:22.572Z,5.07
2019-05-10T12:26:15.763Z,4.93
2019-05-10T12:26:15.902Z,4.60
2019-05-10T12:30:55.566Z,2.20
2019-05-10T12:33:27.660Z,3.73
2019-05-10T12:35:56.759Z,3.73
2019-05-10T12:38:29.487Z,3.20
2019-05-10T12:40:57.493Z,3.30
2019-05-10T12:43:27.027Z,3.77
2019-05-10T12:45:56.502Z,2.47
2019-05-10T12:48:26.350Z,3.60
2019-05-10T12:50:59.502Z,3.97
2019-05-10T12:53:27.534Z,5.33
2019-05-10T12:55:57.018Z,5.57
2019-05-10T12:58:26.533Z,3.50
2019-05-10T13:00:58.957Z,3.90
2019-05-10T13:03:31.603Z,4.20
2019-05-10T13:05:59.201Z,3.97
2019-05-10T13:08:28.890Z,6.93
2019-05-10T13:10:58.386Z,4.67
2019-05-10T13:13:29.991Z,4.30
2019-05-10T13:16:03.523Z,2.93
2019-05-10T13:21:02.020Z,5.03
2019-05-10T13:23:31.546Z,4.20
2019-05-10T13:26:01.346Z,4.57
2019-05-10T13:28:30.826Z,4.73
2019-05-10T13:31:05.585Z,2.67
2019-05-10T13:33:40.694Z,2.83
2019-05-10T13:36:02.630Z,5.53
2019-05-10T13:38:36.818Z,3.80
2019-05-10T13:41:03.552Z,3.57
2019-05-10T13:43:33.058Z,3.37
2019-05-10T13:46:02.938Z,4.60
2019-05-10T13:48:32.379Z,4.10
2019-05-10T13:51:01.965Z,3.30
2019-05-10T13:53:31.430Z,5.23
2019-05-10T13:56:00.927Z,3.00
2019-05-10T13:58:30.446Z,6.73
2019-05-10T14:00:59.968Z,3.13
2019-05-10T14:03:43.153Z,3.03
2019-05-10T14:06:00.649Z,4.57
2019-05-10T14:08:30.139Z,5.23
2019-05-10T14:11:01.357Z,8.57
2019-05-10T14:13:35.619Z,2.80
2019-05-10T14:16:02.670Z,2.60
2019-05-10T14:18:32.167Z,2.50
2019-05-10T14:21:01.691Z,5.23
2019-05-10T14:23:35.147Z,3.50
2019-05-10T14:26:02.680Z,6.77
2019-05-10T14:28:32.294Z,5.23
2019-05-10T14:31:02.431Z,3.03
2019-05-10T14:33:32.375Z,4.13
2019-05-10T14:36:03.307Z,2.93
2019-05-10T14:38:33.009Z,5.10
2019-05-10T14:41:03.852Z,3.07
2019-05-10T14:43:33.984Z,2.80
2019-05-10T14:46:03.842Z,4.00
2019-05-10T14:48:35.591Z,4.10
2019-05-10T14:51:10.783Z,5.60
2019-05-10T14:53:36.253Z,2.80
2019-05-10T14:56:08.131Z,3.17
2019-05-10T14:58:37.224Z,3.30
2019-05-10T15:01:06.866Z,3.90
2019-05-10T15:03:45.271Z,3.90
2019-05-10T15:06:07.850Z,2.93
2019-05-10T15:08:37.716Z,3.77
2019-05-10T15:11:07.223Z,6.13
2019-05-10T15:13:37.064Z,5.17
2019-05-10T15:16:09.606Z,2.90
2019-05-10T15:18:37.697Z,4.60
2019-05-10T15:21:07.202Z,3.93
2019-05-10T15:23:36.702Z,5.30
2019-05-10T15:26:11.864Z,3.67
2019-05-10T15:28:40.508Z,5.17
2019-05-10T15:31:09.058Z,3.07
2019-05-10T15:33:38.870Z,6.13
2019-05-10T15:36:08.391Z,5.30
2019-05-10T15:38:45.982Z,3.90
2019-05-10T15:41:09.442Z,3.37
2019-05-10T15:43:39.262Z,3.73
2019-05-10T15:46:08.746Z,3.97
2019-05-10T15:48:41.816Z,3.50
2019-05-10T15:51:11.259Z,5.65
2019-05-10T15:53:41.538Z,5.87
2019-05-10T15:56:11.332Z,4.17
2019-05-10T15:58:42.604Z,5.90
2019-05-10T16:01:14.277Z,4.80
2019-05-10T16:03:43.434Z,5.07
2019-05-10T16:06:14.855Z,4.50
2019-05-10T16:08:44.635Z,3.87
2019-05-10T16:11:18.784Z,3.57
2019-05-10T16:13:45.277Z,5.30
2019-05-10T16:16:14.806Z,4.53
2019-05-10T16:18:44.337Z,5.97
2019-05-10T16:21:15.050Z,4.43
2019-05-10T16:23:46.576Z,8.63
2019-05-10T16:26:17.487Z,4.13
2019-05-10T16:28:47.219Z,6.83
2019-05-10T16:31:16.855Z,5.37
2019-05-10T16:33:48.175Z,4.17
2019-05-10T16:36:23.140Z,4.50
2019-05-10T16:38:49.408Z,4.40
2019-05-10T16:41:18.918Z,4.97
2019-05-10T16:43:51.754Z,4.73
2019-05-10T16:46:20.012Z,5.67
2019-05-10T16:48:49.833Z,4.90
2019-05-10T16:51:19.354Z,4.00
2019-05-10T16:53:48.878Z,4.87
2019-05-10T16:56:19.260Z,4.57
2019-05-10T16:58:53.071Z,4.43
2019-05-10T17:01:27.552Z,4.70
2019-05-10T17:04:00.023Z,4.50
2019-05-10T17:06:24.920Z,6.40
2019-05-10T17:08:54.767Z,4.90
2019-05-10T17:11:24.259Z,4.90
2019-05-10T17:13:55.687Z,6.10
2019-05-10T17:16:25.629Z,5.40
2019-05-10T17:18:56.834Z,7.33
2019-05-10T17:21:26.519Z,3.60
2019-05-10T17:23:56.120Z,6.47
2019-05-10T17:26:25.611Z,3.90
2019-05-10T17:28:55.122Z,5.97
2019-05-10T17:31:24.910Z,5.60
2019-05-10T17:33:54.410Z,5.03
2019-05-10T17:36:24.182Z,5.67
2019-05-10T17:38:55.498Z,5.10
2019-05-10T17:41:26.975Z,3.27
2019-05-10T17:43:56.022Z,3.90
2019-05-10T17:46:26.611Z,4.03
2019-05-10T17:48:56.130Z,4.90
2019-05-10T17:51:25.719Z,3.10
2019-05-10T17:54:01.664Z,4.70
2019-05-10T17:56:27.311Z,4.43
2019-05-10T17:58:56.963Z,5.73
2019-05-10T18:01:26.793Z,4.13
2019-05-10T18:03:57.311Z,3.77
2019-05-10T18:06:26.874Z,4.10
2019-05-10T18:08:56.755Z,4.17
2019-05-10T18:11:26.289Z,5.87
2019-05-10T18:13:55.798Z,5.47
2019-05-10T18:16:25.345Z,7.73
2019-05-10T18:18:54.862Z,5.97
2019-05-10T18:21:24.531Z,27.97
2019-05-10T18:23:58.089Z,9.03
2019-05-10T18:26:25.146Z,8.23
2019-05-10T18:28:54.655Z,7.77
2019-05-10T18:31:24.271Z,8.33
2019-05-10T18:33:55.688Z,7.17
2019-05-10T18:36:49.231Z,6.63
2019-05-10T18:38:56.046Z,6.97
2019-05-10T18:41:25.563Z,6.90
2019-05-10T18:43:55.139Z,8.50
2019-05-10T18:46:24.926Z,7.77
2019-05-10T18:48:54.754Z,7.73
2019-05-10T18:51:26.323Z,8.33
2019-05-10T18:53:55.758Z,9.13
2019-05-10T18:56:31.085Z,9.23
2019-05-10T18:59:06.522Z,7.43
2019-05-10T19:01:33.030Z,8.10
2019-05-10T19:03:59.119Z,8.60
2019-05-10T19:06:31.302Z,8.33
2019-05-10T19:08:59.795Z,8.23
2019-05-10T19:11:33.261Z,11.70
2019-05-10T19:14:04.589Z,8.83
2019-05-10T19:16:34.155Z,8.90
2019-05-10T19:19:03.766Z,10.33
2019-05-10T19:21:37.588Z,14.30
2019-05-10T19:24:04.776Z,11.20
2019-05-10T19:26:34.566Z,14.37
2019-05-10T19:29:05.562Z,9.00
2019-05-10T19:31:38.224Z,8.53
2019-05-10T19:34:08.993Z,8.07
2019-05-10T19:36:38.795Z,11.60
2019-05-10T19:39:08.582Z,8.30
2019-05-10T19:41:38.106Z,8.77
2019-05-10T19:44:07.610Z,9.83
2019-05-10T19:46:39.806Z,11.73
2019-05-10T19:49:13.047Z,12.07
2019-05-10T19:51:42.089Z,10.17
2019-05-10T19:54:13.590Z,8.60
2019-05-10T19:56:41.754Z,9.37
2019-05-10T19:59:13.279Z,9.60
2019-05-10T20:01:45.147Z,10.07
2019-05-10T20:04:13.959Z,10.33
2019-05-10T20:06:44.140Z,8.63
2019-05-10T20:09:13.700Z,11.53
2019-05-10T20:11:43.182Z,12.63
2019-05-10T20:14:12.972Z,10.73
2019-05-10T20:16:51.927Z,12.47
2019-05-10T20:19:14.039Z,10.90
2019-05-10T20:21:43.833Z,12.57
2019-05-10T20:24:13.598Z,12.27
2019-05-10T20:26:43.158Z,13.43
2019-05-10T20:29:12.653Z,12.87
2019-05-10T20:31:42.173Z,12.10
2019-05-10T20:34:11.657Z,11.87
2019-05-10T20:36:41.172Z,13.00
2019-05-10T20:39:11.039Z,12.37
2019-05-10T20:41:40.896Z,12.87
2019-05-10T20:44:10.419Z,12.97
2019-05-10T20:46:40.044Z,14.40
2019-05-10T20:49:09.562Z,13.60
2019-05-10T20:51:39.051Z,13.17
2019-05-10T20:54:09.446Z,14.10
2019-05-10T20:56:39.647Z,16.77
2019-05-10T20:59:09.672Z,19.50
2019-05-10T21:01:44.063Z,14.60
2019-05-10T21:04:13.987Z,15.20
2019-05-10T21:06:43.775Z,14.57
2019-05-10T21:09:13.597Z,15.07
2019-05-10T21:11:43.111Z,14.57
2019-05-10T21:14:12.895Z,14.87
2019-05-10T21:16:42.686Z,16.70
2019-05-10T21:19:12.198Z,15.27
2019-05-10T21:21:41.717Z,15.20
2019-05-10T21:24:11.496Z,20.20
2019-05-10T21:26:41.283Z,18.50
2019-05-10T21:29:10.766Z,17.40
2019-05-10T21:31:40.335Z,18.10
2019-05-10T21:34:10.369Z,21.00
2019-05-10T21:36:39.913Z,15.73
2019-05-10T21:39:09.426Z,17.47
2019-05-10T21:41:39.290Z,19.37
2019-05-10T21:44:08.943Z,18.73
2019-05-10T21:46:38.528Z,17.57
2019-05-10T21:49:08.359Z,16.30
2019-05-10T21:51:37.861Z,18.33
2019-05-10T21:54:07.435Z,18.57
2019-05-10T21:56:37.640Z,19.83
2019-05-10T21:59:07.574Z,17.17
2019-05-10T22:01:37.104Z,18.20
2019-05-10T22:04:06.899Z,18.53
2019-05-10T22:06:36.472Z,21.10
2019-05-10T22:09:07.470Z,23.40
2019-05-10T22:11:37.372Z,24.67
2019-05-10T22:14:06.862Z,21.33
2019-05-10T22:16:36.362Z,21.30
2019-05-10T22:19:05.885Z,21.50
2019-05-10T22:21:35.698Z,19.57
2019-05-10T22:24:05.234Z,22.27
2019-05-10T22:26:34.730Z,25.03
2019-05-10T22:29:04.231Z,23.50
2019-05-10T22:31:34.690Z,19.77
2019-05-10T22:34:04.396Z,20.93
2019-05-10T22:36:33.883Z,20.50
2019-05-10T22:39:07.136Z,23.97
2019-05-10T22:41:34.815Z,20.67
2019-05-10T22:44:04.589Z,20.60
2019-05-10T22:46:34.203Z,24.13
2019-05-10T22:49:03.804Z,24.03
2019-05-10T22:51:33.293Z,19.53
2019-05-10T22:54:02.811Z,21.77
2019-05-10T22:56:32.607Z,21.90
2019-05-10T22:59:02.107Z,22.37
2019-05-10T23:01:31.578Z,19.40
2019-05-10T23:04:01.082Z,19.53
2019-05-10T23:06:30.570Z,20.00
2019-05-10T23:09:00.070Z,16.83
2019-05-10T23:11:29.554Z,16.93
2019-05-10T23:13:59.069Z,16.37
2019-05-10T23:16:28.918Z,16.10
2019-05-10T23:18:58.792Z,16.10
2019-05-10T23:21:28.287Z,14.07
2019-05-10T23:23:59.626Z,16.13
2019-05-10T23:26:29.470Z,15.73
2019-05-10T23:28:59.199Z,16.43
2019-05-10T23:31:29.042Z,14.47
2019-05-10T23:33:58.522Z,15.23
2019-05-10T23:36:28.025Z,15.30
2019-05-10T23:38:57.814Z,17.40
2019-05-10T23:41:27.662Z,15.70
2019-05-10T23:43:57.133Z,14.27
2019-05-10T23:46:26.956Z,15.70
2019-05-10T23:48:56.809Z,16.67
2019-05-10T23:51:26.556Z,15.70
2019-05-10T23:53:56.091Z,17.27
2019-05-10T23:56:25.716Z,17.37
2019-05-10T23:58:55.185Z,21.77
